Time,TemperatureF,DewpointF,PressureIn,WindDirection,WindDirectionDegrees,WindSpeedMPH,WindSpeedGustMPH,Humidity,HourlyPrecipIn,Conditions,Clouds,dailyrainin,SoftwareType,DateUTC
2013-03-27 08:24:00,31.1,27.7,29.73,East,90,0.0,0.0,87,0.00,,,0.00,WUHU216HW,2013-03-27 07:24:00,
2013-03-27 08:29:00,31.2,27.6,29.73,East,90,0.0,0.0,86,0.00,,,0.00,WUHU216HW,2013-03-27 07:29:00,
2013-03-27 08:34:00,31.6,27.9,29.73,East,90,0.0,0.0,86,0.00,,,0.00,WUHU216HW,2013-03-27 07:34:00,
2013-03-27 08:39:00,31.8,28.1,29.73,East,90,0.0,0.0,86,0.00,,,0.00,WUHU216HW,2013-03-27 07:39:00,
2013-03-27 08:44:00,31.8,28.1,29.73,East,90,0.0,0.0,86,0.00,,,0.00,WUHU216HW,2013-03-27 07:44:00,
2013-03-27 08:49:00,31.1,27.4,29.74,East,90,0.0,0.0,86,0.00,,,0.00,WUHU216HW,2013-03-27 07:49:00,
2013-03-27 08:54:00,31.2,27.6,29.74,East,90,0.0,0.0,86,0.00,,,0.00,WUHU216HW,2013-03-27 07:54:00,
2013-03-27 08:59:00,31.6,27.9,29.74,East,90,0.0,0.0,86,0.00,,,0.00,WUHU216HW,2013-03-27 07:59:00,
2013-03-27 09:04:00,31.2,27.6,29.74,East,90,0.0,0.0,86,0.00,,,0.00,WUHU216HW,2013-03-27 08:04:00,
2013-03-27 09:09:00,31.8,28.1,29.75,East,90,0.0,0.0,86,0.00,,,0.00,WUHU216HW,2013-03-27 08:09:00,
2013-03-27 09:14:00,31.8,28.1,29.75,East,90,0.0,0.0,86,0.00,,,0.00,WUHU216HW,2013-03-27 08:14:00,
2013-03-27 09:19:00,32.5,28.5,29.75,East,90,0.0,0.0,85,0.00,,,0.00,WUHU216HW,2013-03-27 08:19:00,
2013-03-27 09:24:00,32.5,28.5,29.76,East,90,0.0,0.8,85,0.00,,,0.00,WUHU216HW,2013-03-27 08:24:00,
2013-03-27 09:29:00,31.8,27.8,29.76,East,90,0.0,0.8,85,0.00,,,0.00,WUHU216HW,2013-03-27 08:29:00,
2013-03-27 09:34:00,31.6,27.6,29.76,East,90,0.0,0.0,85,0.00,,,0.00,WUHU216HW,2013-03-27 08:34:00,
2013-03-27 09:39:00,31.8,27.8,29.76,East,90,0.0,0.0,85,0.00,,,0.00,WUHU216HW,2013-03-27 08:39:00,
2013-03-27 09:44:00,31.8,27.8,29.76,East,90,0.0,0.0,85,0.00,,,0.00,WUHU216HW,2013-03-27 08:44:00,
2013-03-27 14:00:00,35.2,29.3,29.78,NE,45,0.0,0.0,79,0.04,,,0.00,WUHU216HW,2013-03-27 13:00:00,
2013-03-27 14:10:00,34.3,28.7,29.78,ESE,113,0.0,4.0,80,0.02,,,0.13,WUHU216HW,2013-03-27 13:10:00,
2013-03-27 14:15:00,34.3,28.7,29.78,SE,135,0.0,2.6,80,0.04,,,0.15,WUHU216HW,2013-03-27 13:15:00,
2013-03-27 14:20:00,34.1,28.5,29.79,SE,135,0.8,2.4,80,0.04,,,0.15,WUHU216HW,2013-03-27 13:20:00,
2013-03-27 14:25:00,33.8,28.4,29.79,ESE,113,0.0,1.7,80,0.04,,,0.15,WUHU216HW,2013-03-27 13:25:00,
2013-03-27 14:30:00,33.6,28.3,29.79,East,90,0.0,0.0,81,0.04,,,0.15,WUHU216HW,2013-03-27 13:30:00,
2013-03-27 14:35:00,33.6,28.3,29.79,ESE,113,0.0,0.8,81,0.04,,,0.15,WUHU216HW,2013-03-27 13:35:00,
2013-03-27 14:40:00,33.4,28.1,29.79,East,90,0.0,0.8,81,0.04,,,0.15,WUHU216HW,2013-03-27 13:40:00,
2013-03-27 14:45:00,33.4,28.3,29.80,SSE,158,0.0,0.0,81,0.04,,,0.15,WUHU216HW,2013-03-27 13:45:00,
2013-03-27 14:50:00,33.4,28.1,29.80,ESE,113,0.0,0.0,81,0.04,,,0.15,WUHU216HW,2013-03-27 13:50:00,
2013-03-27 14:55:00,33.2,28.3,29.80,ESE,113,0.0,0.0,82,0.02,,,0.15,WUHU216HW,2013-03-27 13:55:00,
2013-03-27 15:00:00,33.0,28.1,29.80,NE,45,0.0,0.0,82,0.02,,,0.15,WUHU216HW,2013-03-27 14:00:00,
2013-03-27 15:05:00,32.9,27.9,29.80,NE,45,0.0,0.0,82,0.02,,,0.15,WUHU216HW,2013-03-27 14:05:00,
2013-03-27 15:10:00,32.9,27.9,29.80,ESE,113,2.4,2.4,82,0.00,,,0.15,WUHU216HW,2013-03-27 14:10:00,
2013-03-27 15:15:00,32.9,27.9,29.81,ESE,113,0.0,2.9,82,0.00,,,0.15,WUHU216HW,2013-03-27 14:15:00,
2013-03-27 15:20:00,32.7,27.8,29.81,SE,135,0.0,2.9,82,0.00,,,0.15,WUHU216HW,2013-03-27 14:20:00,
2013-03-27 15:25:00,32.7,28.1,29.81,ESE,113,3.5,3.5,83,0.00,,,0.15,WUHU216HW,2013-03-27 14:25:00,
2013-03-27 15:30:00,32.5,27.9,29.81,SSE,158,0.0,3.5,83,0.00,,,0.15,WUHU216HW,2013-03-27 14:30:00,
2013-03-27 15:35:00,32.5,27.9,29.81,SSE,158,0.0,1.7,83,0.00,,,0.15,WUHU216HW,2013-03-27 14:35:00,
2013-03-27 15:40:00,32.5,28.2,29.81,SE,135,0.0,1.7,84,0.00,,,0.15,WUHU216HW,2013-03-27 14:40:00,
2013-03-27 15:45:00,32.5,28.2,29.81,SE,135,0.0,0.0,84,0.00,,,0.15,WUHU216HW,2013-03-27 14:45:00,
2013-03-27 15:50:00,32.7,28.4,29.82,SE,135,2.2,2.2,84,0.00,,,0.15,WUHU216HW,2013-03-27 14:50:00,
2013-03-27 15:55:00,32.9,28.5,29.81,ENE,68,0.0,2.2,84,0.00,,,0.15,WUHU216HW,2013-03-27 14:55:00,
2013-03-27 16:00:00,32.7,28.5,29.81,ENE,68,0.0,0.6,84,0.00,,,0.15,WUHU216HW,2013-03-27 15:00:00,
2013-03-27 16:05:00,32.5,28.2,29.82,ESE,113,0.0,0.6,84,0.00,,,0.15,WUHU216HW,2013-03-27 15:05:00,
2013-03-27 16:10:00,32.5,28.2,29.82,East,90,0.0,0.0,84,0.00,,,0.15,WUHU216HW,2013-03-27 15:10:00,
2013-03-27 16:15:00,32.5,28.2,29.82,East,90,0.0,0.0,84,0.00,,,0.15,WUHU216HW,2013-03-27 15:15:00,
2013-03-27 16:20:00,32.5,28.2,29.82,ESE,113,0.0,0.0,84,0.00,,,0.15,WUHU216HW,2013-03-27 15:20:00,
2013-03-27 16:25:00,32.5,28.2,29.82,ESE,113,0.0,0.0,84,0.00,,,0.15,WUHU216HW,2013-03-27 15:25:00,
2013-03-27 16:30:00,32.3,28.2,29.82,ESE,113,0.0,0.0,84,0.00,,,0.15,WUHU216HW,2013-03-27 15:30:00,
2013-03-27 16:35:00,32.3,28.0,29.82,ESE,113,0.0,0.0,84,0.00,,,0.15,WUHU216HW,2013-03-27 15:35:00,
2013-03-27 16:40:00,32.3,28.0,29.83,ESE,113,0.0,0.0,84,0.00,,,0.15,WUHU216HW,2013-03-27 15:40:00,
2013-03-27 16:45:00,32.1,27.9,29.83,ESE,113,0.0,0.0,84,0.00,,,0.15,WUHU216HW,2013-03-27 15:45:00,
2013-03-27 16:50:00,32.1,27.9,29.83,ESE,113,0.0,0.0,84,0.00,,,0.15,WUHU216HW,2013-03-27 15:50:00,
2013-03-27 16:55:00,32.1,28.2,29.83,ESE,113,0.0,0.0,85,0.00,,,0.15,WUHU216HW,2013-03-27 15:55:00,
2013-03-27 17:00:00,32.0,28.0,29.83,ESE,113,0.0,2.0,85,0.00,,,0.15,WUHU216HW,2013-03-27 16:00:00,
2013-03-27 17:06:00,31.8,27.8,29.83,ESE,113,0.0,2.0,85,0.00,,,0.15,WUHU216HW,2013-03-27 16:06:00,
2013-03-27 17:11:00,32.0,28.0,29.83,ESE,113,0.0,2.6,85,0.00,,,0.15,WUHU216HW,2013-03-27 16:11:00,
2013-03-27 17:16:00,31.8,27.8,29.83,ESE,113,0.0,2.6,85,0.00,,,0.15,WUHU216HW,2013-03-27 16:16:00,
2013-03-27 17:21:00,31.8,27.8,29.83,ESE,113,0.0,0.0,85,0.00,,,0.15,WUHU216HW,2013-03-27 16:21:00,
2013-03-27 17:26:00,31.8,27.8,29.83,ESE,113,0.0,0.0,85,0.00,,,0.15,WUHU216HW,2013-03-27 16:26:00,
2013-03-27 17:31:00,31.8,27.8,29.84,ESE,113,0.0,0.0,85,0.00,,,0.15,WUHU216HW,2013-03-27 16:31:00,
2013-03-27 17:36:00,31.6,27.6,29.84,ESE,113,0.0,0.0,85,0.00,,,0.15,WUHU216HW,2013-03-27 16:36:00,
2013-03-27 17:41:00,31.6,27.9,29.84,ESE,113,0.0,0.0,86,0.00,,,0.15,WUHU216HW,2013-03-27 16:41:00,
2013-03-27 17:46:00,31.6,27.9,29.84,ESE,113,0.0,1.3,86,0.00,,,0.15,WUHU216HW,2013-03-27 16:46:00,
2013-03-27 17:51:00,31.6,27.9,29.84,ESE,113,0.0,1.3,86,0.00,,,0.15,WUHU216HW,2013-03-27 16:51:00,
2013-03-27 17:56:00,31.6,27.9,29.84,ESE,113,0.0,0.0,86,0.00,,,0.15,WUHU216HW,2013-03-27 16:56:00,
2013-03-27 18:01:00,31.6,27.9,29.84,ESE,113,0.0,0.0,86,0.00,,,0.15,WUHU216HW,2013-03-27 17:01:00,
2013-03-27 18:06:00,31.6,27.9,29.84,ESE,113,0.0,0.0,86,0.00,,,0.15,WUHU216HW,2013-03-27 17:06:00,
2013-03-27 18:11:00,31.6,27.9,29.85,ESE,113,0.0,0.0,86,0.00,,,0.15,WUHU216HW,2013-03-27 17:11:00,
2013-03-27 18:16:00,31.6,27.9,29.84,ESE,113,0.0,0.0,86,0.00,,,0.15,WUHU216HW,2013-03-27 17:16:00,
2013-03-27 18:21:00,31.6,27.9,29.85,ESE,113,0.0,0.0,86,0.00,,,0.15,WUHU216HW,2013-03-27 17:21:00,
2013-03-27 18:26:00,31.6,27.9,29.85,ESE,113,0.0,0.0,86,0.00,,,0.15,WUHU216HW,2013-03-27 17:26:00,
2013-03-27 18:31:00,31.6,27.9,29.84,ESE,113,0.0,0.0,86,0.00,,,0.15,WUHU216HW,2013-03-27 17:31:00,
2013-03-27 18:36:00,31.6,27.9,29.85,ESE,113,0.0,0.0,86,0.00,,,0.15,WUHU216HW,2013-03-27 17:36:00,
2013-03-27 18:41:00,31.6,27.9,29.84,ESE,113,0.0,0.0,87,0.00,,,0.15,WUHU216HW,2013-03-27 17:41:00,
2013-03-27 18:47:00,31.6,28.2,29.85,ESE,113,0.0,0.0,87,0.00,,,0.15,WUHU216HW,2013-03-27 17:47:00,
2013-03-27 18:52:00,31.6,28.2,29.85,ESE,113,0.0,0.0,87,0.00,,,0.15,WUHU216HW,2013-03-27 17:52:00,
2013-03-27 18:57:00,31.6,28.2,29.85,ESE,113,0.0,0.0,87,0.00,,,0.15,WUHU216HW,2013-03-27 17:57:00,
2013-03-27 19:02:00,31.6,28.2,29.85,ESE,113,0.0,0.0,87,0.00,,,0.15,WUHU216HW,2013-03-27 18:02:00,
2013-03-27 19:07:00,31.6,28.2,29.86,ESE,113,0.0,0.0,87,0.00,,,0.15,WUHU216HW,2013-03-27 18:07:00,
2013-03-27 19:12:00,31.6,28.2,29.86,ESE,113,0.0,0.0,87,0.00,,,0.15,WUHU216HW,2013-03-27 18:12:00,
2013-03-27 19:17:00,31.6,28.2,29.86,ESE,113,0.0,0.0,87,0.00,,,0.15,WUHU216HW,2013-03-27 18:17:00,
2013-03-27 19:22:00,31.6,28.2,29.86,ESE,113,0.0,0.0,87,0.00,,,0.15,WUHU216HW,2013-03-27 18:22:00,
2013-03-27 19:27:00,31.6,28.2,29.86,ESE,113,0.0,0.0,87,0.00,,,0.15,WUHU216HW,2013-03-27 18:27:00,
2013-03-27 19:32:00,31.4,28.2,29.86,ESE,113,0.0,0.0,87,0.00,,,0.15,WUHU216HW,2013-03-27 18:32:00,
2013-03-27 19:37:00,31.4,28.0,29.86,ESE,113,0.0,0.0,87,0.00,,,0.15,WUHU216HW,2013-03-27 18:37:00,
2013-03-27 19:44:00,31.6,28.2,29.87,ESE,113,0.0,0.0,87,0.00,,,0.15,WUHU216HW,2013-03-27 18:44:00,
2013-03-27 19:49:00,31.6,28.2,29.87,ESE,113,0.0,0.0,87,0.00,,,0.15,WUHU216HW,2013-03-27 18:49:00,
2013-03-27 19:54:00,31.6,28.2,29.86,ESE,113,0.0,0.0,87,0.00,,,0.15,WUHU216HW,2013-03-27 18:54:00,
2013-03-27 19:59:00,31.6,28.2,29.87,ESE,113,0.0,0.0,87,0.00,,,0.15,WUHU216HW,2013-03-27 18:59:00,
2013-03-27 20:04:00,31.6,28.5,29.87,ESE,113,0.0,0.0,87,0.00,,,0.15,WUHU216HW,2013-03-27 19:04:00,
2013-03-27 20:09:00,31.6,28.5,29.87,ESE,113,0.0,0.0,88,0.00,,,0.15,WUHU216HW,2013-03-27 19:09:00,
2013-03-27 20:14:00,31.6,28.5,29.87,ESE,113,0.0,0.0,88,0.00,,,0.15,WUHU216HW,2013-03-27 19:14:00,